KBTM/BTM METAR and TAF weather

Enter ICAO airport designator
Station Type Date Time Source
KBTM METAR 2020/02/24 22:53 UTC NOAA

KBTM 242253Z AUTO 30012G19KT 10SM BKN050 M02/M11 A3016 RMK AO2 PK WND 29026/2235 SLP252 T10171106


Station Type Date Time Source
KBTM Decoded METAR 2020/02/24 22:53 UTC NOAA

BERT MOONEY AIRPORT, MT, United States (KBTM) 45-58N 112-30W 1688M
Feb 24, 2020 - 05:53 PM EST / 2020.02.24 2253 UTC
Wind: from the WNW (300 degrees) at 14 MPH (12 KT) gusting to 22 MPH (19 KT):0
Visibility: 10 mile(s):0
Sky conditions: mostly cloudy
Temperature: 28.9 F (-1.7 C)
Windchill: 17 F (-8 C):1
Dew Point: 12.9 F (-10.6 C)
Relative Humidity: 50%
Pressure (altimeter): 30.16 in. Hg (1021 hPa)
ob: KBTM 242253Z AUTO 30012G19KT 10SM BKN050 M02/M11 A3016 RMK AO2 PK WND 29026/2235 SLP252 T10171106
cycle: 23

Station Type Date Time Source
KBTM TAF 2020/02/24 18:24 UTC NOAA

TAF KBTM 241722Z 2418/2518 31012G18KT P6SM BKN050
FM242100 32010G20KT P6SM VCSH BKN040 BKN060 BKN100
FM250300 VRB02KT P6SM BKN050

Example: see airport list